sensor_id;sensor_type;location;lat;lon;timestamp;temperature;humidity
52245;DHT22;55759;51.586;-1.758;2023-06-19T00:01:42;14.60;93.80
52245;DHT22;55759;51.586;-1.758;2023-06-19T00:04:09;14.60;93.80
52245;DHT22;55759;51.586;-1.758;2023-06-19T00:06:34;14.60;93.80
52245;DHT22;55759;51.586;-1.758;2023-06-19T00:09:00;14.60;93.90
52245;DHT22;55759;51.586;-1.758;2023-06-19T00:11:25;14.50;93.90
52245;DHT22;55759;51.586;-1.758;2023-06-19T00:13:51;14.50;94.00
52245;DHT22;55759;51.586;-1.758;2023-06-19T00:16:17;14.50;93.90
52245;DHT22;55759;51.586;-1.758;2023-06-19T00:18:44;14.40;94.00
52245;DHT22;55759;51.586;-1.758;2023-06-19T00:21:10;14.40;94.00
52245;DHT22;55759;51.586;-1.758;2023-06-19T00:23:36;14.40;93.90
52245;DHT22;55759;51.586;-1.758;2023-06-19T00:26:01;14.40;94.00
52245;DHT22;55759;51.586;-1.758;2023-06-19T00:28:28;14.40;94.00
52245;DHT22;55759;51.586;-1.758;2023-06-19T00:30:53;14.30;94.00
52245;DHT22;55759;51.586;-1.758;2023-06-19T00:33:19;14.30;94.00
52245;DHT22;55759;51.586;-1.758;2023-06-19T00:35:44;14.30;94.10
52245;DHT22;55759;51.586;-1.758;2023-06-19T00:38:10;14.20;94.00
52245;DHT22;55759;51.586;-1.758;2023-06-19T00:40:35;14.20;94.00
52245;DHT22;55759;51.586;-1.758;2023-06-19T00:43:01;14.20;94.00
52245;DHT22;55759;51.586;-1.758;2023-06-19T00:45:27;14.20;94.10
52245;DHT22;55759;51.586;-1.758;2023-06-19T00:47:53;14.20;94.10
52245;DHT22;55759;51.586;-1.758;2023-06-19T00:50:19;14.20;94.10
52245;DHT22;55759;51.586;-1.758;2023-06-19T00:52:45;14.20;94.10
52245;DHT22;55759;51.586;-1.758;2023-06-19T00:55:11;14.10;94.10
52245;DHT22;55759;51.586;-1.758;2023-06-19T00:57:37;14.10;94.10
52245;DHT22;55759;51.586;-1.758;2023-06-19T01:00:03;14.10;94.10
52245;DHT22;55759;51.586;-1.758;2023-06-19T01:02:33;14.10;94.10
52245;DHT22;55759;51.586;-1.758;2023-06-19T01:04:58;14.10;94.10
52245;DHT22;55759;51.586;-1.758;2023-06-19T01:07:29;14.10;94.10
52245;DHT22;55759;51.586;-1.758;2023-06-19T01:10:01;14.10;94.20
52245;DHT22;55759;51.586;-1.758;2023-06-19T01:12:30;14.10;94.20
52245;DHT22;55759;51.586;-1.758;2023-06-19T01:14:59;14.10;94.10
52245;DHT22;55759;51.586;-1.758;2023-06-19T01:17:28;14.10;94.20
52245;DHT22;55759;51.586;-1.758;2023-06-19T01:19:57;14.00;94.10
52245;DHT22;55759;51.586;-1.758;2023-06-19T01:24:51;14.10;94.20
52245;DHT22;55759;51.586;-1.758;2023-06-19T01:27:17;14.10;94.20
52245;DHT22;55759;51.586;-1.758;2023-06-19T01:29:42;14.10;94.20
52245;DHT22;55759;51.586;-1.758;2023-06-19T01:32:18;14.10;94.20
52245;DHT22;55759;51.586;-1.758;2023-06-19T01:34:46;14.10;94.20
52245;DHT22;55759;51.586;-1.758;2023-06-19T01:37:12;14.10;94.20
52245;DHT22;55759;51.586;-1.758;2023-06-19T01:39:38;14.00;94.20
52245;DHT22;55759;51.586;-1.758;2023-06-19T01:42:04;14.00;94.20
52245;DHT22;55759;51.586;-1.758;2023-06-19T01:44:31;14.00;94.20
52245;DHT22;55759;51.586;-1.758;2023-06-19T01:46:56;14.00;94.20
52245;DHT22;55759;51.586;-1.758;2023-06-19T01:49:22;14.00;94.20
52245;DHT22;55759;51.586;-1.758;2023-06-19T01:51:47;13.90;94.20
52245;DHT22;55759;51.586;-1.758;2023-06-19T01:54:13;14.00;94.20
52245;DHT22;55759;51.586;-1.758;2023-06-19T01:56:38;14.00;94.20
52245;DHT22;55759;51.586;-1.758;2023-06-19T01:59:04;13.90;94.20
52245;DHT22;55759;51.586;-1.758;2023-06-19T02:01:30;13.90;94.20
52245;DHT22;55759;51.586;-1.758;2023-06-19T02:03:55;14.00;94.20
52245;DHT22;55759;51.586;-1.758;2023-06-19T02:06:21;14.00;94.20
52245;DHT22;55759;51.586;-1.758;2023-06-19T02:08:47;13.90;94.20
52245;DHT22;55759;51.586;-1.758;2023-06-19T02:11:13;13.90;94.20
52245;DHT22;55759;51.586;-1.758;2023-06-19T02:13:39;13.90;94.20
52245;DHT22;55759;51.586;-1.758;2023-06-19T02:16:04;13.80;94.20
52245;DHT22;55759;51.586;-1.758;2023-06-19T02:18:30;13.80;94.20
52245;DHT22;55759;51.586;-1.758;2023-06-19T02:20:55;13.80;94.10
52245;DHT22;55759;51.586;-1.758;2023-06-19T02:23:21;13.70;94.10
52245;DHT22;55759;51.586;-1.758;2023-06-19T02:25:47;13.70;94.10
52245;DHT22;55759;51.586;-1.758;2023-06-19T02:28:12;13.70;94.10
52245;DHT22;55759;51.586;-1.758;2023-06-19T02:30:38;13.60;94.10
52245;DHT22;55759;51.586;-1.758;2023-06-19T02:33:03;13.60;94.10
52245;DHT22;55759;51.586;-1.758;2023-06-19T02:35:30;13.60;94.10
52245;DHT22;55759;51.586;-1.758;2023-06-19T02:37:55;13.60;94.20
52245;DHT22;55759;51.586;-1.758;2023-06-19T02:40:21;13.50;94.20
52245;DHT22;55759;51.586;-1.758;2023-06-19T02:42:46;13.60;94.20
52245;DHT22;55759;51.586;-1.758;2023-06-19T02:45:14;13.60;94.20
52245;DHT22;55759;51.586;-1.758;2023-06-19T02:47:41;13.60;94.30
52245;DHT22;55759;51.586;-1.758;2023-06-19T02:50:07;13.60;94.30
52245;DHT22;55759;51.586;-1.758;2023-06-19T02:52:33;13.60;94.30
52245;DHT22;55759;51.586;-1.758;2023-06-19T02:54:58;13.60;94.30
52245;DHT22;55759;51.586;-1.758;2023-06-19T02:57:24;13.60;94.30
52245;DHT22;55759;51.586;-1.758;2023-06-19T02:59:50;13.60;94.30
52245;DHT22;55759;51.586;-1.758;2023-06-19T03:02:15;13.60;94.40
52245;DHT22;55759;51.586;-1.758;2023-06-19T03:04:41;13.60;94.40
52245;DHT22;55759;51.586;-1.758;2023-06-19T03:07:06;13.60;94.40
52245;DHT22;55759;51.586;-1.758;2023-06-19T03:09:32;13.50;94.30
52245;DHT22;55759;51.586;-1.758;2023-06-19T03:11:58;13.50;94.30
52245;DHT22;55759;51.586;-1.758;2023-06-19T03:14:23;13.50;94.30
52245;DHT22;55759;51.586;-1.758;2023-06-19T03:16:49;13.40;94.20
52245;DHT22;55759;51.586;-1.758;2023-06-19T03:19:14;13.40;94.20
52245;DHT22;55759;51.586;-1.758;2023-06-19T03:21:40;13.40;94.20
52245;DHT22;55759;51.586;-1.758;2023-06-19T03:24:06;13.30;94.20
52245;DHT22;55759;51.586;-1.758;2023-06-19T03:26:32;13.30;94.20
52245;DHT22;55759;51.586;-1.758;2023-06-19T03:28:57;13.30;94.20
52245;DHT22;55759;51.586;-1.758;2023-06-19T03:31:23;13.20;94.20
52245;DHT22;55759;51.586;-1.758;2023-06-19T03:33:48;13.20;94.20
52245;DHT22;55759;51.586;-1.758;2023-06-19T03:36:14;13.10;94.20
52245;DHT22;55759;51.586;-1.758;2023-06-19T03:38:40;13.20;94.30
52245;DHT22;55759;51.586;-1.758;2023-06-19T03:41:05;13.20;94.40
52245;DHT22;55759;51.586;-1.758;2023-06-19T03:43:31;13.20;94.50
52245;DHT22;55759;51.586;-1.758;2023-06-19T03:45:56;13.30;94.50
52245;DHT22;55759;51.586;-1.758;2023-06-19T03:48:22;13.40;94.60
52245;DHT22;55759;51.586;-1.758;2023-06-19T03:50:47;13.40;94.60
52245;DHT22;55759;51.586;-1.758;2023-06-19T03:53:13;13.50;94.70
52245;DHT22;55759;51.586;-1.758;2023-06-19T03:55:39;13.60;94.80
52245;DHT22;55759;51.586;-1.758;2023-06-19T03:58:04;13.60;94.70
52245;DHT22;55759;51.586;-1.758;2023-06-19T04:00:31;13.70;94.70
52245;DHT22;55759;51.586;-1.758;2023-06-19T04:02:57;13.60;94.60
52245;DHT22;55759;51.586;-1.758;2023-06-19T04:05:22;13.60;94.60
52245;DHT22;55759;51.586;-1.758;2023-06-19T04:07:48;13.60;94.50
52245;DHT22;55759;51.586;-1.758;2023-06-19T04:10:14;13.60;94.50
52245;DHT22;55759;51.586;-1.758;2023-06-19T04:12:40;13.60;94.50
52245;DHT22;55759;51.586;-1.758;2023-06-19T04:15:06;13.60;94.50
52245;DHT22;55759;51.586;-1.758;2023-06-19T04:17:32;13.60;94.50
52245;DHT22;55759;51.586;-1.758;2023-06-19T04:19:57;13.60;94.50
52245;DHT22;55759;51.586;-1.758;2023-06-19T04:22:23;13.70;94.60
52245;DHT22;55759;51.586;-1.758;2023-06-19T04:24:48;13.70;94.60
52245;DHT22;55759;51.586;-1.758;2023-06-19T04:27:14;13.80;94.70
52245;DHT22;55759;51.586;-1.758;2023-06-19T04:29:39;13.90;94.70
52245;DHT22;55759;51.586;-1.758;2023-06-19T04:32:05;13.90;94.70
52245;DHT22;55759;51.586;-1.758;2023-06-19T04:34:40;13.90;94.70
52245;DHT22;55759;51.586;-1.758;2023-06-19T04:37:06;14.00;94.70
52245;DHT22;55759;51.586;-1.758;2023-06-19T04:39:32;14.10;94.70
52245;DHT22;55759;51.586;-1.758;2023-06-19T04:41:59;14.10;94.70
52245;DHT22;55759;51.586;-1.758;2023-06-19T04:44:25;14.10;94.70
52245;DHT22;55759;51.586;-1.758;2023-06-19T04:46:51;14.20;94.70
52245;DHT22;55759;51.586;-1.758;2023-06-19T04:49:16;14.30;94.70
52245;DHT22;55759;51.586;-1.758;2023-06-19T04:51:42;14.30;94.70
52245;DHT22;55759;51.586;-1.758;2023-06-19T04:54:07;14.30;94.50
52245;DHT22;55759;51.586;-1.758;2023-06-19T04:56:33;14.30;94.50
52245;DHT22;55759;51.586;-1.758;2023-06-19T04:58:59;14.30;94.40
52245;DHT22;55759;51.586;-1.758;2023-06-19T05:01:25;14.40;94.40
52245;DHT22;55759;51.586;-1.758;2023-06-19T05:03:54;14.50;94.60
52245;DHT22;55759;51.586;-1.758;2023-06-19T05:06:20;14.60;94.70
52245;DHT22;55759;51.586;-1.758;2023-06-19T05:08:45;14.80;94.80
52245;DHT22;55759;51.586;-1.758;2023-06-19T05:11:11;15.00;94.90
52245;DHT22;55759;51.586;-1.758;2023-06-19T05:13:36;15.10;94.90
52245;DHT22;55759;51.586;-1.758;2023-06-19T05:16:02;15.30;94.90
52245;DHT22;55759;51.586;-1.758;2023-06-19T05:18:27;15.40;94.80
52245;DHT22;55759;51.586;-1.758;2023-06-19T05:20:53;15.50;94.70
52245;DHT22;55759;51.586;-1.758;2023-06-19T05:23:19;15.50;94.60
52245;DHT22;55759;51.586;-1.758;2023-06-19T05:25:44;15.50;94.50
52245;DHT22;55759;51.586;-1.758;2023-06-19T05:28:10;15.60;94.50
52245;DHT22;55759;51.586;-1.758;2023-06-19T05:30:36;15.70;94.50
52245;DHT22;55759;51.586;-1.758;2023-06-19T05:33:01;15.80;94.50
52245;DHT22;55759;51.586;-1.758;2023-06-19T05:35:27;15.80;94.00
52245;DHT22;55759;51.586;-1.758;2023-06-19T05:37:52;15.90;93.70
52245;DHT22;55759;51.586;-1.758;2023-06-19T05:40:18;15.80;93.70
52245;DHT22;55759;51.586;-1.758;2023-06-19T05:42:44;15.80;93.60
52245;DHT22;55759;51.586;-1.758;2023-06-19T05:45:10;15.80;93.50
52245;DHT22;55759;51.586;-1.758;2023-06-19T05:47:36;15.80;93.50
52245;DHT22;55759;51.586;-1.758;2023-06-19T05:50:01;15.80;93.20
52245;DHT22;55759;51.586;-1.758;2023-06-19T05:52:27;15.90;93.20
52245;DHT22;55759;51.586;-1.758;2023-06-19T05:54:52;16.00;93.40
52245;DHT22;55759;51.586;-1.758;2023-06-19T05:57:23;16.00;93.30
52245;DHT22;55759;51.586;-1.758;2023-06-19T05:59:49;16.00;92.90
52245;DHT22;55759;51.586;-1.758;2023-06-19T06:02:14;15.90;92.80
52245;DHT22;55759;51.586;-1.758;2023-06-19T06:04:40;15.90;92.80
52245;DHT22;55759;51.586;-1.758;2023-06-19T06:07:06;16.00;93.20
52245;DHT22;55759;51.586;-1.758;2023-06-19T06:09:31;16.20;93.30
52245;DHT22;55759;51.586;-1.758;2023-06-19T06:11:58;16.30;93.20
52245;DHT22;55759;51.586;-1.758;2023-06-19T06:14:24;16.40;93.10
52245;DHT22;55759;51.586;-1.758;2023-06-19T06:16:49;16.40;92.60
52245;DHT22;55759;51.586;-1.758;2023-06-19T06:19:15;16.50;92.50
52245;DHT22;55759;51.586;-1.758;2023-06-19T06:21:41;16.60;92.70
52245;DHT22;55759;51.586;-1.758;2023-06-19T06:24:06;16.70;93.10
52245;DHT22;55759;51.586;-1.758;2023-06-19T06:26:32;16.90;93.10
52245;DHT22;55759;51.586;-1.758;2023-06-19T06:28:58;17.10;92.70
52245;DHT22;55759;51.586;-1.758;2023-06-19T06:31:24;17.10;92.50
52245;DHT22;55759;51.586;-1.758;2023-06-19T06:33:49;17.30;92.60
52245;DHT22;55759;51.586;-1.758;2023-06-19T06:36:15;17.50;92.80
52245;DHT22;55759;51.586;-1.758;2023-06-19T06:38:41;17.80;92.70
52245;DHT22;55759;51.586;-1.758;2023-06-19T06:41:07;17.90;91.50
52245;DHT22;55759;51.586;-1.758;2023-06-19T06:43:33;18.00;90.90
52245;DHT22;55759;51.586;-1.758;2023-06-19T06:45:59;18.20;90.40
52245;DHT22;55759;51.586;-1.758;2023-06-19T06:48:27;18.30;90.90
52245;DHT22;55759;51.586;-1.758;2023-06-19T06:50:53;18.30;89.90
52245;DHT22;55759;51.586;-1.758;2023-06-19T06:53:26;18.40;89.60
52245;DHT22;55759;51.586;-1.758;2023-06-19T06:55:53;18.40;87.50
52245;DHT22;55759;51.586;-1.758;2023-06-19T06:58:19;18.30;87.40
52245;DHT22;55759;51.586;-1.758;2023-06-19T07:00:44;18.20;86.20
52245;DHT22;55759;51.586;-1.758;2023-06-19T07:03:10;18.10;87.30
52245;DHT22;55759;51.586;-1.758;2023-06-19T07:05:38;18.00;86.90
52245;DHT22;55759;51.586;-1.758;2023-06-19T07:08:04;18.00;86.50
52245;DHT22;55759;51.586;-1.758;2023-06-19T07:10:30;17.90;87.20
52245;DHT22;55759;51.586;-1.758;2023-06-19T07:12:55;17.90;87.00
52245;DHT22;55759;51.586;-1.758;2023-06-19T07:15:21;17.90;85.80
52245;DHT22;55759;51.586;-1.758;2023-06-19T07:17:47;17.80;85.60
52245;DHT22;55759;51.586;-1.758;2023-06-19T07:20:13;17.70;86.60
52245;DHT22;55759;51.586;-1.758;2023-06-19T07:22:38;17.70;86.90
52245;DHT22;55759;51.586;-1.758;2023-06-19T07:25:04;17.70;86.80
52245;DHT22;55759;51.586;-1.758;2023-06-19T07:27:30;17.80;86.60
52245;DHT22;55759;51.586;-1.758;2023-06-19T07:29:56;17.90;85.50
52245;DHT22;55759;51.586;-1.758;2023-06-19T07:32:21;17.90;85.80
52245;DHT22;55759;51.586;-1.758;2023-06-19T07:34:50;18.00;85.20
52245;DHT22;55759;51.586;-1.758;2023-06-19T07:37:15;18.00;85.30
52245;DHT22;55759;51.586;-1.758;2023-06-19T07:39:44;18.00;85.60
52245;DHT22;55759;51.586;-1.758;2023-06-19T07:42:09;18.30;86.20
52245;DHT22;55759;51.586;-1.758;2023-06-19T07:44:35;18.80;83.80
52245;DHT22;55759;51.586;-1.758;2023-06-19T07:47:01;19.20;83.10
52245;DHT22;55759;51.586;-1.758;2023-06-19T07:49:27;19.50;81.10
52245;DHT22;55759;51.586;-1.758;2023-06-19T07:51:52;19.60;81.10
52245;DHT22;55759;51.586;-1.758;2023-06-19T07:54:18;19.80;80.30
52245;DHT22;55759;51.586;-1.758;2023-06-19T07:56:44;20.00;80.40
52245;DHT22;55759;51.586;-1.758;2023-06-19T07:59:09;20.40;79.10
52245;DHT22;55759;51.586;-1.758;2023-06-19T08:01:35;20.80;78.20
52245;DHT22;55759;51.586;-1.758;2023-06-19T08:04:00;20.90;76.20
52245;DHT22;55759;51.586;-1.758;2023-06-19T08:06:26;20.70;75.90
52245;DHT22;55759;51.586;-1.758;2023-06-19T08:08:51;20.30;76.60
52245;DHT22;55759;51.586;-1.758;2023-06-19T08:11:17;20.00;76.40
52245;DHT22;55759;51.586;-1.758;2023-06-19T08:13:43;19.80;77.80
52245;DHT22;55759;51.586;-1.758;2023-06-19T08:16:08;19.70;77.50
52245;DHT22;55759;51.586;-1.758;2023-06-19T08:18:36;19.60;77.90
52245;DHT22;55759;51.586;-1.758;2023-06-19T08:21:01;19.70;77.90
52245;DHT22;55759;51.586;-1.758;2023-06-19T08:23:27;19.80;78.80
52245;DHT22;55759;51.586;-1.758;2023-06-19T08:25:53;20.20;78.10
52245;DHT22;55759;51.586;-1.758;2023-06-19T08:28:18;20.60;76.90
52245;DHT22;55759;51.586;-1.758;2023-06-19T08:30:44;20.90;76.40
52245;DHT22;55759;51.586;-1.758;2023-06-19T08:33:10;21.30;72.80
52245;DHT22;55759;51.586;-1.758;2023-06-19T08:35:38;21.60;71.60
52245;DHT22;55759;51.586;-1.758;2023-06-19T08:38:03;21.60;71.10
52245;DHT22;55759;51.586;-1.758;2023-06-19T08:40:29;21.30;71.90
52245;DHT22;55759;51.586;-1.758;2023-06-19T08:42:54;21.10;70.80
52245;DHT22;55759;51.586;-1.758;2023-06-19T08:45:21;21.10;71.00
52245;DHT22;55759;51.586;-1.758;2023-06-19T08:47:47;21.00;70.60
52245;DHT22;55759;51.586;-1.758;2023-06-19T08:50:13;21.10;72.50
52245;DHT22;55759;51.586;-1.758;2023-06-19T08:52:39;21.10;72.50
52245;DHT22;55759;51.586;-1.758;2023-06-19T08:55:05;21.20;70.00
52245;DHT22;55759;51.586;-1.758;2023-06-19T08:57:34;21.40;71.00
52245;DHT22;55759;51.586;-1.758;2023-06-19T09:00:00;21.70;68.60
52245;DHT22;55759;51.586;-1.758;2023-06-19T09:02:35;21.80;68.80
52245;DHT22;55759;51.586;-1.758;2023-06-19T09:05:08;21.90;69.50
52245;DHT22;55759;51.586;-1.758;2023-06-19T09:07:34;22.10;69.20
52245;DHT22;55759;51.586;-1.758;2023-06-19T09:10:00;22.40;66.90
52245;DHT22;55759;51.586;-1.758;2023-06-19T09:12:25;22.20;66.50
52245;DHT22;55759;51.586;-1.758;2023-06-19T09:14:51;22.10;65.60
52245;DHT22;55759;51.586;-1.758;2023-06-19T09:17:20;22.00;65.20
52245;DHT22;55759;51.586;-1.758;2023-06-19T09:19:52;22.10;65.00
52245;DHT22;55759;51.586;-1.758;2023-06-19T09:22:18;22.40;64.70
52245;DHT22;55759;51.586;-1.758;2023-06-19T09:24:46;22.50;64.20
52245;DHT22;55759;51.586;-1.758;2023-06-19T09:27:19;22.50;65.00
52245;DHT22;55759;51.586;-1.758;2023-06-19T09:29:46;22.60;64.40
52245;DHT22;55759;51.586;-1.758;2023-06-19T09:34:44;23.00;63.40
52245;DHT22;55759;51.586;-1.758;2023-06-19T09:37:10;22.90;62.30
52245;DHT22;55759;51.586;-1.758;2023-06-19T09:39:39;22.80;63.90
52245;DHT22;55759;51.586;-1.758;2023-06-19T09:42:09;22.80;65.10
52245;DHT22;55759;51.586;-1.758;2023-06-19T09:44:41;22.80;63.00
52245;DHT22;55759;51.586;-1.758;2023-06-19T09:47:14;22.90;64.80
52245;DHT22;55759;51.586;-1.758;2023-06-19T09:49:42;23.20;62.40
52245;DHT22;55759;51.586;-1.758;2023-06-19T09:52:10;23.40;62.10
52245;DHT22;55759;51.586;-1.758;2023-06-19T09:54:36;23.60;62.70
52245;DHT22;55759;51.586;-1.758;2023-06-19T09:57:02;23.90;58.50
52245;DHT22;55759;51.586;-1.758;2023-06-19T09:59:28;24.10;60.00
52245;DHT22;55759;51.586;-1.758;2023-06-19T10:01:54;23.90;58.70
52245;DHT22;55759;51.586;-1.758;2023-06-19T10:04:19;23.80;60.40
52245;DHT22;55759;51.586;-1.758;2023-06-19T10:06:47;23.60;59.40
52245;DHT22;55759;51.586;-1.758;2023-06-19T10:09:14;23.60;59.50
52245;DHT22;55759;51.586;-1.758;2023-06-19T10:11:46;23.90;61.60
52245;DHT22;55759;51.586;-1.758;2023-06-19T10:14:12;24.10;59.60
52245;DHT22;55759;51.586;-1.758;2023-06-19T10:16:40;24.40;60.20
52245;DHT22;55759;51.586;-1.758;2023-06-19T10:19:15;25.00;56.00
52245;DHT22;55759;51.586;-1.758;2023-06-19T10:21:45;25.40;54.80
52245;DHT22;55759;51.586;-1.758;2023-06-19T10:24:13;25.70;55.10
52245;DHT22;55759;51.586;-1.758;2023-06-19T10:26:58;26.10;51.60
52245;DHT22;55759;51.586;-1.758;2023-06-19T10:29:24;26.20;52.90
52245;DHT22;55759;51.586;-1.758;2023-06-19T10:31:51;27.10;51.20
52245;DHT22;55759;51.586;-1.758;2023-06-19T10:34:16;28.30;49.50
52245;DHT22;55759;51.586;-1.758;2023-06-19T10:36:42;28.60;47.40
52245;DHT22;55759;51.586;-1.758;2023-06-19T10:39:07;29.00;45.40
52245;DHT22;55759;51.586;-1.758;2023-06-19T10:41:34;29.70;43.40
52245;DHT22;55759;51.586;-1.758;2023-06-19T10:44:02;30.70;42.40
52245;DHT22;55759;51.586;-1.758;2023-06-19T10:46:37;32.00;38.50
52245;DHT22;55759;51.586;-1.758;2023-06-19T10:49:04;31.80;39.90
52245;DHT22;55759;51.586;-1.758;2023-06-19T10:51:30;32.00;39.70
52245;DHT22;55759;51.586;-1.758;2023-06-19T10:53:56;32.60;38.00
52245;DHT22;55759;51.586;-1.758;2023-06-19T10:56:22;32.10;39.90
52245;DHT22;55759;51.586;-1.758;2023-06-19T10:58:48;31.30;41.40
52245;DHT22;55759;51.586;-1.758;2023-06-19T11:01:21;32.20;38.30
52245;DHT22;55759;51.586;-1.758;2023-06-19T11:03:47;33.40;36.30
52245;DHT22;55759;51.586;-1.758;2023-06-19T11:06:19;32.60;35.50
52245;DHT22;55759;51.586;-1.758;2023-06-19T11:08:51;31.70;39.00
52245;DHT22;55759;51.586;-1.758;2023-06-19T11:11:17;32.30;37.10
52245;DHT22;55759;51.586;-1.758;2023-06-19T11:13:43;31.60;38.50
52245;DHT22;55759;51.586;-1.758;2023-06-19T11:16:09;30.70;40.30
52245;DHT22;55759;51.586;-1.758;2023-06-19T11:18:35;30.20;39.00
52245;DHT22;55759;51.586;-1.758;2023-06-19T11:21:01;30.20;40.50
52245;DHT22;55759;51.586;-1.758;2023-06-19T11:23:27;29.90;40.00
52245;DHT22;55759;51.586;-1.758;2023-06-19T11:25:53;30.10;40.80
52245;DHT22;55759;51.586;-1.758;2023-06-19T11:28:22;31.00;39.50
52245;DHT22;55759;51.586;-1.758;2023-06-19T11:30:49;32.40;37.90
52245;DHT22;55759;51.586;-1.758;2023-06-19T11:33:22;33.10;36.50
52245;DHT22;55759;51.586;-1.758;2023-06-19T11:35:51;33.60;34.40
52245;DHT22;55759;51.586;-1.758;2023-06-19T11:38:17;33.60;33.30
52245;DHT22;55759;51.586;-1.758;2023-06-19T11:40:43;33.00;33.80
52245;DHT22;55759;51.586;-1.758;2023-06-19T11:43:22;32.90;33.50
52245;DHT22;55759;51.586;-1.758;2023-06-19T11:45:48;32.70;34.20
52245;DHT22;55759;51.586;-1.758;2023-06-19T11:48:21;32.10;34.00
52245;DHT22;55759;51.586;-1.758;2023-06-19T11:50:46;31.80;35.50
52245;DHT22;55759;51.586;-1.758;2023-06-19T11:53:12;31.70;35.40
52245;DHT22;55759;51.586;-1.758;2023-06-19T11:55:38;31.60;35.30
52245;DHT22;55759;51.586;-1.758;2023-06-19T11:58:04;32.00;35.20
52245;DHT22;55759;51.586;-1.758;2023-06-19T12:03:21;32.00;35.40
52245;DHT22;55759;51.586;-1.758;2023-06-19T12:05:47;31.50;35.40
52245;DHT22;55759;51.586;-1.758;2023-06-19T12:08:12;31.00;37.70
52245;DHT22;55759;51.586;-1.758;2023-06-19T12:10:38;30.50;38.80
52245;DHT22;55759;51.586;-1.758;2023-06-19T12:13:03;30.60;37.90
52245;DHT22;55759;51.586;-1.758;2023-06-19T12:15:29;31.20;36.30
52245;DHT22;55759;51.586;-1.758;2023-06-19T12:17:55;32.20;35.90
52245;DHT22;55759;51.586;-1.758;2023-06-19T12:20:23;32.90;33.00
52245;DHT22;55759;51.586;-1.758;2023-06-19T12:22:48;32.20;33.90
52245;DHT22;55759;51.586;-1.758;2023-06-19T12:25:14;32.20;35.20
52245;DHT22;55759;51.586;-1.758;2023-06-19T12:27:39;32.90;34.10
52245;DHT22;55759;51.586;-1.758;2023-06-19T12:30:06;32.70;33.10
52245;DHT22;55759;51.586;-1.758;2023-06-19T12:32:31;32.10;35.40
52245;DHT22;55759;51.586;-1.758;2023-06-19T12:34:57;32.10;35.00
52245;DHT22;55759;51.586;-1.758;2023-06-19T12:37:23;33.10;33.70
52245;DHT22;55759;51.586;-1.758;2023-06-19T12:39:49;33.30;33.00
52245;DHT22;55759;51.586;-1.758;2023-06-19T12:42:15;33.10;34.60
52245;DHT22;55759;51.586;-1.758;2023-06-19T12:44:40;34.10;32.50
52245;DHT22;55759;51.586;-1.758;2023-06-19T12:47:06;33.50;32.80
52245;DHT22;55759;51.586;-1.758;2023-06-19T12:49:32;32.60;33.90
52245;DHT22;55759;51.586;-1.758;2023-06-19T12:51:58;32.80;35.40
52245;DHT22;55759;51.586;-1.758;2023-06-19T12:54:23;32.90;35.50
52245;DHT22;55759;51.586;-1.758;2023-06-19T12:56:49;32.60;35.00
52245;DHT22;55759;51.586;-1.758;2023-06-19T12:59:15;33.80;36.40
52245;DHT22;55759;51.586;-1.758;2023-06-19T13:01:41;35.10;31.90
52245;DHT22;55759;51.586;-1.758;2023-06-19T13:04:06;34.90;31.00
52245;DHT22;55759;51.586;-1.758;2023-06-19T13:06:32;34.60;33.60
52245;DHT22;55759;51.586;-1.758;2023-06-19T13:08:58;36.20;30.50
52245;DHT22;55759;51.586;-1.758;2023-06-19T13:11:23;36.00;28.50
52245;DHT22;55759;51.586;-1.758;2023-06-19T13:13:49;36.40;29.40
52245;DHT22;55759;51.586;-1.758;2023-06-19T13:16:14;37.40;28.00
52245;DHT22;55759;51.586;-1.758;2023-06-19T13:18:41;37.60;29.00
52245;DHT22;55759;51.586;-1.758;2023-06-19T13:21:09;38.50;28.80
52245;DHT22;55759;51.586;-1.758;2023-06-19T13:23:34;39.70;25.50
52245;DHT22;55759;51.586;-1.758;2023-06-19T13:26:02;39.80;25.10
52245;DHT22;55759;51.586;-1.758;2023-06-19T13:28:28;38.50;26.00
52245;DHT22;55759;51.586;-1.758;2023-06-19T13:30:53;37.90;28.30
52245;DHT22;55759;51.586;-1.758;2023-06-19T13:33:19;38.50;28.70
52245;DHT22;55759;51.586;-1.758;2023-06-19T13:35:45;38.80;26.70
52245;DHT22;55759;51.586;-1.758;2023-06-19T13:38:11;38.20;25.40
52245;DHT22;55759;51.586;-1.758;2023-06-19T13:40:36;37.60;27.90
52245;DHT22;55759;51.586;-1.758;2023-06-19T13:43:02;37.10;27.20
52245;DHT22;55759;51.586;-1.758;2023-06-19T13:45:29;37.10;29.20
52245;DHT22;55759;51.586;-1.758;2023-06-19T13:47:56;38.50;26.70
52245;DHT22;55759;51.586;-1.758;2023-06-19T13:50:23;38.50;27.40
52245;DHT22;55759;51.586;-1.758;2023-06-19T13:52:48;37.50;25.40
52245;DHT22;55759;51.586;-1.758;2023-06-19T13:55:14;36.70;27.80
52245;DHT22;55759;51.586;-1.758;2023-06-19T13:57:41;36.40;26.80
52245;DHT22;55759;51.586;-1.758;2023-06-19T14:00:07;36.50;27.70
52245;DHT22;55759;51.586;-1.758;2023-06-19T14:02:34;36.70;27.20
52245;DHT22;55759;51.586;-1.758;2023-06-19T14:04:59;37.10;26.20
52245;DHT22;55759;51.586;-1.758;2023-06-19T14:07:25;37.60;26.90
52245;DHT22;55759;51.586;-1.758;2023-06-19T14:09:52;39.20;24.40
52245;DHT22;55759;51.586;-1.758;2023-06-19T14:12:18;40.80;25.50
52245;DHT22;55759;51.586;-1.758;2023-06-19T14:14:44;42.10;22.10
52245;DHT22;55759;51.586;-1.758;2023-06-19T14:17:09;43.10;23.40
52245;DHT22;55759;51.586;-1.758;2023-06-19T14:19:35;44.30;21.20
52245;DHT22;55759;51.586;-1.758;2023-06-19T14:22:03;45.20;21.00
52245;DHT22;55759;51.586;-1.758;2023-06-19T14:24:29;44.40;20.10
52245;DHT22;55759;51.586;-1.758;2023-06-19T14:26:54;43.60;19.80
52245;DHT22;55759;51.586;-1.758;2023-06-19T14:29:20;43.60;20.40
52245;DHT22;55759;51.586;-1.758;2023-06-19T14:31:46;44.10;20.50
52245;DHT22;55759;51.586;-1.758;2023-06-19T14:34:11;44.30;20.30
52245;DHT22;55759;51.586;-1.758;2023-06-19T14:36:37;44.70;20.30
52245;DHT22;55759;51.586;-1.758;2023-06-19T14:39:03;45.40;18.60
52245;DHT22;55759;51.586;-1.758;2023-06-19T14:41:29;45.80;21.00
52245;DHT22;55759;51.586;-1.758;2023-06-19T14:43:54;46.20;21.40
52245;DHT22;55759;51.586;-1.758;2023-06-19T14:46:20;46.50;18.40
52245;DHT22;55759;51.586;-1.758;2023-06-19T14:48:46;46.10;18.20
52245;DHT22;55759;51.586;-1.758;2023-06-19T14:51:12;46.20;22.00
52245;DHT22;55759;51.586;-1.758;2023-06-19T14:53:37;46.70;21.00
52245;DHT22;55759;51.586;-1.758;2023-06-19T14:56:03;47.40;20.30
52245;DHT22;55759;51.586;-1.758;2023-06-19T14:58:29;47.80;19.60
52245;DHT22;55759;51.586;-1.758;2023-06-19T15:00:55;47.50;20.90
52245;DHT22;55759;51.586;-1.758;2023-06-19T15:03:20;47.40;18.00
52245;DHT22;55759;51.586;-1.758;2023-06-19T15:05:46;46.90;19.30
52245;DHT22;55759;51.586;-1.758;2023-06-19T15:08:11;46.60;21.70
52245;DHT22;55759;51.586;-1.758;2023-06-19T15:10:37;46.60;21.00
52245;DHT22;55759;51.586;-1.758;2023-06-19T15:13:03;47.00;21.10
52245;DHT22;55759;51.586;-1.758;2023-06-19T15:15:28;47.10;19.20
52245;DHT22;55759;51.586;-1.758;2023-06-19T15:17:54;47.10;20.70